createdAt,value
2018-01-27T00:00:21.840Z,1019.94
2018-01-27T00:05:17.662Z,1020.05
2018-01-27T00:10:17.286Z,1020.12
2018-01-27T00:15:12.152Z,1020.14
2018-01-27T00:20:12.778Z,1020.12
2018-01-27T00:25:07.430Z,1020.12
2018-01-27T00:30:07.075Z,1020.03
2018-01-27T00:35:01.972Z,1020.00
2018-01-27T00:39:58.738Z,1020.03
2018-01-27T00:44:54.670Z,1020.07
2018-01-27T00:49:50.970Z,1020.17
2018-01-27T00:54:50.520Z,1020.12
2018-01-27T00:59:45.390Z,1020.12
2018-01-27T01:04:42.368Z,1020.18
2018-01-27T01:09:37.827Z,1020.25
2018-01-27T01:14:35.150Z,1020.25
2018-01-27T01:19:32.375Z,1020.27
2018-01-27T01:24:27.757Z,1020.34
2018-01-27T01:29:24.122Z,1020.41
2018-01-27T01:34:19.388Z,1020.48
2018-01-27T01:39:16.338Z,1020.47
2018-01-27T01:44:12.839Z,1020.55
2018-01-27T01:49:12.049Z,1020.58
2018-01-27T01:54:11.309Z,1020.57
2018-01-27T01:59:06.337Z,1020.48
2018-01-27T02:04:02.333Z,1020.44
2018-01-27T02:08:58.500Z,1020.58
2018-01-27T02:13:54.413Z,1020.46
2018-01-27T02:18:50.430Z,1020.55
2018-01-27T02:23:46.239Z,1020.68
2018-01-27T02:28:42.021Z,1020.60
2018-01-27T02:33:41.821Z,1020.69
2018-01-27T02:38:37.652Z,1020.67
2018-01-27T02:43:33.306Z,1020.62
2018-01-27T02:48:32.842Z,1020.67
2018-01-27T02:53:32.620Z,1020.68
2018-01-27T02:58:28.383Z,1020.68
2018-01-27T03:03:24.720Z,1020.65
2018-01-27T03:08:25.748Z,1020.74
2018-01-27T03:13:20.539Z,1020.66
2018-01-27T03:18:17.510Z,1020.86
2018-01-27T03:23:13.780Z,1020.83
2018-01-27T03:28:09.488Z,1020.88
2018-01-27T03:33:05.347Z,1020.90
2018-01-27T03:38:01.485Z,1020.84
2018-01-27T03:43:01.830Z,1021.00
2018-01-27T03:48:00.498Z,1021.04
2018-01-27T03:52:55.414Z,1021.03
2018-01-27T03:57:52.145Z,1021.03
2018-01-27T04:02:52.503Z,1021.26
2018-01-27T04:07:47.321Z,1021.32
2018-01-27T04:12:42.816Z,1021.41
2018-01-27T04:17:38.672Z,1021.43
2018-01-27T04:22:34.282Z,1021.50
2018-01-27T04:27:31.066Z,1021.50
2018-01-27T04:32:27.613Z,1021.63
2018-01-27T04:37:23.988Z,1021.71
2018-01-27T04:42:20.586Z,1021.81
2018-01-27T04:47:15.662Z,1021.82
2018-01-27T04:52:11.367Z,1021.91
2018-01-27T04:57:08.692Z,1022.00
2018-01-27T05:02:05.173Z,1021.97
2018-01-27T05:07:04.368Z,1021.99
2018-01-27T05:11:59.212Z,1022.16
2018-01-27T05:16:59.933Z,1022.17
2018-01-27T05:21:54.537Z,1022.24
2018-01-27T05:26:50.905Z,1022.45
2018-01-27T05:31:47.299Z,1022.51
2018-01-27T05:36:43.127Z,1022.65
2018-01-27T05:41:38.883Z,1022.47
2018-01-27T05:46:34.601Z,1022.64
2018-01-27T05:51:35.200Z,1022.66
2018-01-27T05:56:29.703Z,1022.73
2018-01-27T06:01:25.156Z,1022.64
2018-01-27T06:06:24.874Z,1022.69
2018-01-27T06:11:20.744Z,1022.67
2018-01-27T06:16:17.104Z,1022.68
2018-01-27T06:21:12.423Z,1022.71
2018-01-27T06:26:08.217Z,1022.70
2018-01-27T06:31:03.802Z,1022.81
2018-01-27T06:35:59.492Z,1022.92
2018-01-27T06:40:55.078Z,1022.89
2018-01-27T06:45:50.841Z,1023.10
2018-01-27T06:50:51.525Z,1023.17
2018-01-27T06:55:46.410Z,1023.16
2018-01-27T07:00:41.978Z,1023.04
2018-01-27T07:05:37.655Z,1023.29
2018-01-27T07:10:34.101Z,1023.35
2018-01-27T07:15:29.790Z,1023.38
2018-01-27T07:20:25.834Z,1023.35
2018-01-27T07:25:25.598Z,1023.31
2018-01-27T07:30:21.381Z,1023.43
2018-01-27T07:35:16.941Z,1023.50
2018-01-27T07:40:17.650Z,1023.54
2018-01-27T07:45:16.149Z,1023.48
2018-01-27T07:50:11.605Z,1023.58
2018-01-27T07:55:07.499Z,1023.65
2018-01-27T08:00:03.386Z,1023.68
2018-01-27T08:04:59.245Z,1023.72
2018-01-27T08:09:55.199Z,1023.84
2018-01-27T08:14:56.021Z,1023.79
2018-01-27T08:19:52.673Z,1023.82
2018-01-27T08:24:52.024Z,1023.87
2018-01-27T08:29:50.922Z,1023.91
2018-01-27T08:34:49.883Z,1023.86
2018-01-27T08:39:44.702Z,1023.96
2018-01-27T08:44:45.489Z,1023.93
2018-01-27T08:49:44.311Z,1023.81
2018-01-27T08:54:43.115Z,1023.91
2018-01-27T08:59:39.086Z,1023.89
2018-01-27T09:04:35.818Z,1023.94
2018-01-27T09:09:32.400Z,1024.03
2018-01-27T09:14:28.204Z,1024.12
2018-01-27T09:19:24.124Z,1024.18
2018-01-27T09:24:20.065Z,1024.15
2018-01-27T09:29:16.024Z,1024.00
2018-01-27T09:34:12.500Z,1023.89
2018-01-27T09:44:07.994Z,1023.92
2018-01-27T09:49:04.340Z,1023.95
2018-01-27T09:54:04.563Z,1023.96
2018-01-27T09:59:04.863Z,1023.92
2018-01-27T10:03:59.998Z,1024.03
2018-01-27T10:08:55.465Z,1023.95
2018-01-27T10:13:51.217Z,1023.92
2018-01-27T10:18:52.043Z,1023.93
2018-01-27T10:23:48.664Z,1023.88
2018-01-27T10:28:44.357Z,1023.90
2018-01-27T10:33:40.204Z,1023.92
2018-01-27T10:38:36.873Z,1023.95
2018-01-27T10:43:37.176Z,1024.07
2018-01-27T10:48:32.488Z,1024.10
2018-01-27T10:53:31.606Z,1024.08
2018-01-27T10:58:27.493Z,1024.13
2018-01-27T11:03:27.130Z,1024.15
2018-01-27T11:08:22.359Z,1024.14
2018-01-27T11:13:18.717Z,1024.14
2018-01-27T11:18:18.206Z,1024.23
2018-01-27T11:23:17.221Z,1024.16
2018-01-27T11:28:13.533Z,1024.21
2018-01-27T11:33:09.544Z,1024.16
2018-01-27T11:38:05.437Z,1024.18
2018-01-27T11:43:05.252Z,1024.06
2018-01-27T11:48:03.779Z,1024.11
2018-01-27T11:52:59.960Z,1024.11
2018-01-27T11:57:56.544Z,1024.02
2018-01-27T12:02:53.229Z,1023.92
2018-01-27T12:07:48.827Z,1023.73
2018-01-27T12:12:44.652Z,1023.68
2018-01-27T12:17:43.920Z,1023.68
2018-01-27T12:22:38.682Z,1023.64
2018-01-27T12:27:34.529Z,1023.67
2018-01-27T12:32:30.456Z,1023.56
2018-01-27T12:37:26.587Z,1023.47
2018-01-27T12:42:22.459Z,1023.41
2018-01-27T12:47:18.420Z,1023.25
2018-01-27T12:52:15.020Z,1023.28
2018-01-27T12:57:10.497Z,1023.21
2018-01-27T13:02:10.019Z,1023.05
2018-01-27T13:07:06.042Z,1023.14
2018-01-27T13:12:02.563Z,1023.14
2018-01-27T13:16:58.230Z,1023.02
2018-01-27T13:21:54.079Z,1022.76
2018-01-27T13:26:53.749Z,1022.67
2018-01-27T13:31:48.433Z,1022.68
2018-01-27T13:36:44.830Z,1022.82
2018-01-27T13:41:41.303Z,1022.75
2018-01-27T13:46:40.765Z,1022.63
2018-01-27T13:51:35.590Z,1022.62
2018-01-27T13:56:31.293Z,1022.82
2018-01-27T14:01:27.051Z,1022.91
2018-01-27T14:06:23.995Z,1023.02
2018-01-27T14:11:25.793Z,1023.15
2018-01-27T14:16:24.275Z,1022.96
2018-01-27T14:21:19.411Z,1022.79
2018-01-27T14:26:16.062Z,1022.85
2018-01-27T14:31:13.268Z,1022.74
2018-01-27T14:36:08.815Z,1022.79
2018-01-27T14:41:09.242Z,1022.73
2018-01-27T14:46:07.906Z,1022.66
2018-01-27T14:51:02.967Z,1022.63
2018-01-27T14:55:58.621Z,1022.73
2018-01-27T15:00:53.992Z,1022.63
2018-01-27T15:05:54.613Z,1022.54
2018-01-27T15:10:54.476Z,1022.41
2018-01-27T15:15:50.062Z,1022.22
2018-01-27T15:20:50.100Z,1022.18
2018-01-27T15:25:46.597Z,1022.24
2018-01-27T15:30:42.459Z,1022.24
2018-01-27T15:35:38.390Z,1022.31
2018-01-27T15:40:35.871Z,1022.20
2018-01-27T15:45:35.118Z,1022.23
2018-01-27T15:50:29.864Z,1022.21
2018-01-27T15:55:25.455Z,1022.20
2018-01-27T16:00:22.231Z,1022.04
2018-01-27T16:05:19.724Z,1021.95
2018-01-27T16:10:19.820Z,1021.90
2018-01-27T16:15:15.409Z,1021.94
2018-01-27T16:20:12.043Z,1021.93
2018-01-27T16:25:11.419Z,1021.97
2018-01-27T16:30:06.123Z,1022.01
2018-01-27T16:35:02.395Z,1021.99
2018-01-27T16:39:58.204Z,1022.04
2018-01-27T16:44:53.867Z,1022.08
2018-01-27T16:49:49.455Z,1022.16
2018-01-27T16:54:45.839Z,1021.96
2018-01-27T16:59:42.804Z,1021.86
2018-01-27T17:04:39.194Z,1021.62
2018-01-27T17:09:34.811Z,1021.48
2018-01-27T17:14:30.671Z,1021.23
2018-01-27T17:19:26.981Z,1021.38
2018-01-27T17:24:22.818Z,1021.27
2018-01-27T17:29:19.535Z,1021.16
2018-01-27T17:34:20.201Z,1021.35
2018-01-27T17:39:15.944Z,1021.39
2018-01-27T17:44:12.543Z,1021.30
2018-01-27T17:49:11.959Z,1021.22
2018-01-27T17:54:10.580Z,1020.99
2018-01-27T17:59:09.479Z,1020.95
2018-01-27T18:04:05.733Z,1020.88
2018-01-27T18:09:02.097Z,1021.03
2018-01-27T18:14:01.766Z,1021.03
2018-01-27T18:18:57.117Z,1020.86
2018-01-27T18:23:56.893Z,1020.60
2018-01-27T18:28:52.482Z,1020.69
2018-01-27T18:33:49.052Z,1021.01
2018-01-27T18:38:48.857Z,1020.75
2018-01-27T18:43:44.152Z,1020.72
2018-01-27T18:48:39.993Z,1020.52
2018-01-27T18:53:36.815Z,1020.27
2018-01-27T18:58:32.318Z,1020.11
2018-01-27T19:03:30.165Z,1020.14
2018-01-27T19:08:26.904Z,1020.17
2018-01-27T19:13:22.568Z,1020.01
2018-01-27T19:18:19.631Z,1020.08
2018-01-27T19:23:19.269Z,1020.05
2018-01-27T19:28:18.154Z,1019.78
2018-01-27T19:33:14.042Z,1019.62
2018-01-27T19:38:13.547Z,1019.73
2018-01-27T19:43:12.587Z,1019.88
2018-01-27T19:48:07.109Z,1019.83
2018-01-27T19:53:07.823Z,1019.57
2018-01-27T19:58:03.494Z,1019.50
2018-01-27T20:03:02.994Z,1019.39
2018-01-27T20:07:58.528Z,1019.23
2018-01-27T20:12:54.096Z,1019.41
2018-01-27T20:17:53.843Z,1019.33
2018-01-27T20:22:50.529Z,1019.49
2018-01-27T20:27:50.145Z,1019.26
2018-01-27T20:32:49.078Z,1019.57
2018-01-27T20:37:44.983Z,1019.61
2018-01-27T20:42:40.462Z,1019.59
2018-01-27T20:47:40.130Z,1019.52
2018-01-27T20:52:38.634Z,1019.67
2018-01-27T20:57:37.550Z,1019.67
2018-01-27T21:02:36.402Z,1019.49
2018-01-27T21:07:31.294Z,1019.21
2018-01-27T21:12:27.154Z,1019.38
2018-01-27T21:17:26.669Z,1019.23
2018-01-27T21:22:23.186Z,1019.12
2018-01-27T21:27:18.821Z,1018.99
2018-01-27T21:32:14.550Z,1018.95
2018-01-27T21:37:14.235Z,1019.14
2018-01-27T21:42:13.215Z,1019.08
2018-01-27T21:47:07.921Z,1019.03
2018-01-27T21:52:07.673Z,1019.06
2018-01-27T21:57:02.170Z,1019.23
2018-01-27T22:01:58.882Z,1019.20
2018-01-27T22:06:54.529Z,1019.12
2018-01-27T22:11:50.076Z,1019.20
2018-01-27T22:16:47.225Z,1019.22
2018-01-27T22:21:47.296Z,1019.40
2018-01-27T22:26:41.746Z,1019.52
2018-01-27T22:31:37.331Z,1019.56
2018-01-27T22:36:33.799Z,1019.37
2018-01-27T22:41:33.184Z,1019.41
2018-01-27T22:46:29.375Z,1019.43
2018-01-27T22:51:28.656Z,1019.51
2018-01-27T22:56:23.424Z,1019.68
2018-01-27T23:01:22.998Z,1019.61
2018-01-27T23:06:21.760Z,1019.54
2018-01-27T23:11:16.648Z,1019.43
2018-01-27T23:16:12.224Z,1019.28
2018-01-27T23:21:08.109Z,1019.31
2018-01-27T23:26:08.054Z,1019.24
2018-01-27T23:31:02.703Z,1019.22
2018-01-27T23:36:02.405Z,1019.23
2018-01-27T23:40:57.278Z,1019.20
2018-01-27T23:45:54.051Z,1019.36
2018-01-27T23:50:54.496Z,1019.43
2018-01-27T23:55:53.279Z,1019.46
